Terminal Aerodrome Forecast
Issued by NWS Buffalo, NY

Home | Current Version | Previous Version | Text Only | Print | Product List | Glossary On
Versions: 1 2 3 4 5 6 7 8 9 10 11 12 13 14 15 16 17 18 19 20 21 22 23 24 25 26 27 28
000
FTUS41 KBUF 252045 AAB
TAFROC
TAF AMD
KROC 252045Z 2521/2618 33013G26KT P6SM -TSRA SCT050CB BKN100
     FM252115 25012KT P6SM BKN060
     FM260500 23006KT P6SM BKN045
     FM260800 23005KT P6SM SCT035
     FM261400 24010G18KT P6SM VCSH OVC030=

USA.gov is the U.S. government's official web portal to all federal, state and local government web resources and services.